Terminal Aerodrome Forecast
Issued by NWS Louisville, KY

Home | Current Version | Previous Version | Text Only | Print | Product List | Glossary On
Versions: 1 2 3 4 5 6 7 8 9 10 11 12 13 14
000
FTUS43 KLMK 242300
TAFSDF
TAF
KSDF 242321Z 2500/2606 24010KT P6SM SKC
     FM250200 25006KT P6SM BKN035
      TEMPO 2507/2511 6SM BR BKN022
     FM251100 VRB05KT 6SM BR BKN012
     FM251700 05003KT P6SM BKN025=

USA.gov is the U.S. government's official web portal to all federal, state and local government web resources and services.